createdAt,value
2023-07-24T00:03:00.173Z,67.08
2023-07-24T00:05:46.579Z,67.16
2023-07-24T00:08:32.713Z,67.53
2023-07-24T00:11:18.909Z,67.70
2023-07-24T00:14:05.131Z,68.08
2023-07-24T00:16:51.517Z,68.49
2023-07-24T00:19:36.935Z,68.60
2023-07-24T00:22:23.061Z,68.86
2023-07-24T00:25:10.262Z,69.04
2023-07-24T00:27:56.656Z,69.10
2023-07-24T00:30:43.676Z,69.46
2023-07-24T00:33:29.908Z,69.69
2023-07-24T00:36:15.569Z,69.82
2023-07-24T00:39:01.581Z,70.13
2023-07-24T00:41:50.124Z,70.16
2023-07-24T00:44:36.102Z,70.27
2023-07-24T00:47:22.716Z,70.87
2023-07-24T00:50:09.598Z,70.72
2023-07-24T00:52:55.729Z,70.66
2023-07-24T00:55:42.853Z,70.72
2023-07-24T00:58:29.307Z,71.08
2023-07-24T01:01:18.216Z,71.01
2023-07-24T01:04:05.583Z,71.39
2023-07-24T01:06:52.383Z,71.30
2023-07-24T01:09:37.980Z,71.43
2023-07-24T01:12:33.454Z,71.69
2023-07-24T01:15:28.878Z,71.99
2023-07-24T01:18:17.241Z,71.77
2023-07-24T01:21:03.253Z,72.13
2023-07-24T01:24:35.208Z,72.15
2023-07-24T01:27:25.659Z,72.08
2023-07-24T01:30:12.969Z,72.27
2023-07-24T01:32:58.368Z,72.13
2023-07-24T01:35:45.125Z,72.17
2023-07-24T01:38:35.745Z,72.50
2023-07-24T01:41:22.320Z,72.45
2023-07-24T01:44:07.842Z,72.58
2023-07-24T01:46:53.993Z,72.69
2023-07-24T01:49:40.024Z,72.46
2023-07-24T01:52:27.456Z,72.53
2023-07-24T01:55:13.528Z,72.78
2023-07-24T01:57:59.788Z,72.90
2023-07-24T02:00:45.191Z,73.00
2023-07-24T02:03:31.251Z,73.06
2023-07-24T02:06:16.998Z,73.12
2023-07-24T02:09:03.565Z,73.14
2023-07-24T02:11:49.467Z,73.76
2023-07-24T02:14:35.324Z,73.17
2023-07-24T02:17:21.159Z,73.13
2023-07-24T02:20:07.660Z,73.19
2023-07-24T02:23:02.859Z,73.37
2023-07-24T02:25:52.369Z,73.47
2023-07-24T02:28:38.168Z,73.26
2023-07-24T02:31:24.377Z,73.35
2023-07-24T02:34:10.384Z,73.25
2023-07-24T02:36:56.404Z,73.29
2023-07-24T02:39:42.270Z,73.52
2023-07-24T02:42:28.261Z,73.50
2023-07-24T02:45:14.380Z,74.36
2023-07-24T02:48:01.169Z,74.61
2023-07-24T02:50:50.961Z,75.03
2023-07-24T02:53:36.855Z,75.41
2023-07-24T02:56:22.957Z,75.28
2023-07-24T02:59:09.092Z,75.88
2023-07-24T03:01:54.798Z,75.91
2023-07-24T03:04:41.474Z,75.97
2023-07-24T03:07:27.002Z,75.95
2023-07-24T03:10:13.035Z,76.32
2023-07-24T03:12:58.714Z,76.24
2023-07-24T03:15:56.056Z,76.19
2023-07-24T03:18:41.772Z,76.31
2023-07-24T03:21:27.534Z,76.12
2023-07-24T03:24:13.623Z,76.46
2023-07-24T03:26:59.636Z,76.54
2023-07-24T03:29:45.687Z,76.46
2023-07-24T03:32:32.004Z,76.51
2023-07-24T03:35:17.994Z,76.64
2023-07-24T03:38:03.921Z,76.83
2023-07-24T03:40:50.930Z,76.67
2023-07-24T03:43:36.676Z,76.62
2023-07-24T03:46:22.306Z,76.90
2023-07-24T03:49:08.153Z,76.84
2023-07-24T03:51:53.653Z,76.59
2023-07-24T03:54:39.748Z,76.59
2023-07-24T03:57:25.545Z,76.65
2023-07-24T04:00:12.204Z,76.88
2023-07-24T04:02:57.835Z,76.66
2023-07-24T04:05:43.630Z,77.07
2023-07-24T04:08:29.267Z,76.82
2023-07-24T04:11:15.699Z,76.86
2023-07-24T04:14:01.576Z,76.85
2023-07-24T04:16:47.714Z,77.06
2023-07-24T04:19:33.591Z,76.58
2023-07-24T04:22:19.928Z,76.34
2023-07-24T04:25:06.153Z,76.02
2023-07-24T04:27:51.945Z,75.97
2023-07-24T04:30:38.165Z,75.60
2023-07-24T04:33:28.170Z,75.59
2023-07-24T04:36:15.829Z,75.48
2023-07-24T04:39:04.239Z,75.28
2023-07-24T04:41:51.792Z,75.34
2023-07-24T04:44:37.906Z,75.12
2023-07-24T04:47:23.504Z,74.62
2023-07-24T04:50:10.137Z,74.57
2023-07-24T04:52:55.924Z,74.61
2023-07-24T04:55:41.879Z,74.62
2023-07-24T04:58:27.578Z,74.64
2023-07-24T05:01:14.205Z,74.72
2023-07-24T05:03:59.877Z,75.62
2023-07-24T05:06:45.747Z,75.93
2023-07-24T05:09:31.383Z,76.34
2023-07-24T05:12:17.380Z,77.34
2023-07-24T05:15:03.551Z,78.36
2023-07-24T05:17:49.475Z,78.99
2023-07-24T05:20:35.023Z,78.98
2023-07-24T05:23:21.531Z,79.93
2023-07-24T05:26:07.076Z,81.55
2023-07-24T05:28:54.003Z,81.93
2023-07-24T05:31:39.864Z,82.90
2023-07-24T05:34:26.852Z,83.01
2023-07-24T05:37:12.640Z,83.90
2023-07-24T05:39:58.589Z,83.86
2023-07-24T05:42:44.691Z,84.29
2023-07-24T05:45:30.762Z,84.50
2023-07-24T05:48:16.382Z,84.34
2023-07-24T05:51:02.386Z,84.67
2023-07-24T05:53:48.386Z,84.95
2023-07-24T05:56:34.428Z,84.58
2023-07-24T05:59:20.068Z,84.62
2023-07-24T06:02:06.463Z,84.56
2023-07-24T06:04:52.246Z,84.53
2023-07-24T06:07:38.566Z,84.59
2023-07-24T06:10:24.120Z,84.83
2023-07-24T06:13:10.244Z,84.20
2023-07-24T06:15:56.171Z,84.19
2023-07-24T06:18:44.002Z,84.39
2023-07-24T06:21:29.826Z,83.56
2023-07-24T06:24:16.063Z,82.70
2023-07-24T06:27:02.139Z,81.56
2023-07-24T06:29:51.300Z,80.68
2023-07-24T06:32:39.243Z,79.83
2023-07-24T06:35:25.510Z,78.96
2023-07-24T06:38:11.082Z,78.33
2023-07-24T06:40:57.303Z,77.15
2023-07-24T06:43:43.944Z,75.98
2023-07-24T06:46:31.230Z,74.92
2023-07-24T06:49:17.253Z,74.42
2023-07-24T06:52:03.592Z,73.90
2023-07-24T06:54:49.094Z,73.59
2023-07-24T06:57:35.187Z,72.57
2023-07-24T07:00:20.823Z,72.19
2023-07-24T07:03:06.764Z,71.87
2023-07-24T07:05:52.945Z,71.80
2023-07-24T07:08:39.180Z,70.87
2023-07-24T07:11:25.276Z,70.16
2023-07-24T07:14:11.649Z,69.54
2023-07-24T07:16:57.193Z,69.09
2023-07-24T07:19:42.990Z,68.54
2023-07-24T07:22:28.918Z,67.74
2023-07-24T07:25:17.324Z,67.34
2023-07-24T07:28:02.967Z,66.20
2023-07-24T07:30:49.392Z,66.02
2023-07-24T07:33:35.393Z,65.22
2023-07-24T07:36:23.631Z,65.17
2023-07-24T07:39:10.759Z,64.08
2023-07-24T07:42:07.999Z,63.30
2023-07-24T07:45:02.438Z,62.80
2023-07-24T07:47:50.491Z,61.47
2023-07-24T07:50:36.717Z,60.52
2023-07-24T07:53:23.988Z,60.22
2023-07-24T07:56:09.829Z,59.51
2023-07-24T07:58:56.258Z,58.72
2023-07-24T08:01:43.216Z,58.27
2023-07-24T08:04:29.242Z,57.86
2023-07-24T08:07:14.931Z,57.06
2023-07-24T08:10:00.875Z,56.80
2023-07-24T08:12:46.991Z,56.26
2023-07-24T08:15:39.194Z,55.83
2023-07-24T08:18:25.299Z,55.97
2023-07-24T08:21:11.202Z,55.67
2023-07-24T08:23:59.189Z,55.97
2023-07-24T08:26:46.431Z,55.21
2023-07-24T08:29:32.701Z,55.04
2023-07-24T08:32:21.360Z,55.00
2023-07-24T08:35:07.741Z,54.28
2023-07-24T08:38:02.332Z,53.96
2023-07-24T08:40:48.587Z,53.78
2023-07-24T08:43:37.251Z,53.53
2023-07-24T08:46:26.355Z,53.31
2023-07-24T08:49:14.122Z,53.01
2023-07-24T08:52:01.889Z,52.53
2023-07-24T08:54:48.649Z,52.88
2023-07-24T08:57:35.768Z,52.59
2023-07-24T09:00:22.180Z,52.32
2023-07-24T09:03:09.252Z,52.21
2023-07-24T09:05:55.744Z,52.31
2023-07-24T09:08:43.232Z,52.14
2023-07-24T09:11:29.143Z,51.78
2023-07-24T09:14:24.638Z,51.53
2023-07-24T09:17:12.382Z,51.69
2023-07-24T09:19:58.954Z,51.64
2023-07-24T09:23:12.037Z,50.98
2023-07-24T09:26:00.400Z,51.19
2023-07-24T09:28:54.299Z,50.78
2023-07-24T09:31:40.392Z,50.56
2023-07-24T09:34:26.957Z,50.51
2023-07-24T09:37:27.449Z,50.46
2023-07-24T09:40:15.921Z,50.46
2023-07-24T09:45:58.158Z,50.08
2023-07-24T09:51:51.383Z,49.45
2023-07-24T09:54:58.190Z,49.94
2023-07-24T09:57:45.251Z,49.62
2023-07-24T10:00:32.550Z,49.07
2023-07-24T10:03:19.253Z,49.13
2023-07-24T10:06:05.641Z,49.23
2023-07-24T10:08:53.661Z,49.06
2023-07-24T10:11:39.791Z,48.96
2023-07-24T10:14:26.825Z,48.85
2023-07-24T10:17:12.618Z,48.72
2023-07-24T10:20:04.881Z,48.63
2023-07-24T10:22:51.617Z,48.61
2023-07-24T10:25:44.812Z,48.73
2023-07-24T10:28:34.613Z,48.71
2023-07-24T10:31:23.755Z,48.77
2023-07-24T10:34:10.490Z,48.77
2023-07-24T10:37:04.386Z,48.35
2023-07-24T10:39:50.241Z,47.87
2023-07-24T10:42:37.432Z,47.53
2023-07-24T10:45:22.970Z,47.04
2023-07-24T10:48:12.510Z,47.28
2023-07-24T10:50:59.815Z,47.45
2023-07-24T10:53:48.971Z,47.59
2023-07-24T10:56:34.634Z,46.86
2023-07-24T10:59:20.410Z,47.38
2023-07-24T11:02:06.490Z,47.35
2023-07-24T11:04:52.769Z,47.35
2023-07-24T11:07:38.610Z,47.24
2023-07-24T11:10:24.933Z,47.14
2023-07-24T11:13:12.587Z,47.21
2023-07-24T11:16:05.360Z,46.77
2023-07-24T11:18:55.121Z,47.14
2023-07-24T11:21:42.303Z,46.90
2023-07-24T11:24:27.996Z,46.87
2023-07-24T11:27:20.336Z,46.99
2023-07-24T11:30:07.027Z,47.14
2023-07-24T11:32:53.106Z,46.93
2023-07-24T11:35:41.090Z,47.21
2023-07-24T11:38:27.137Z,46.80
2023-07-24T11:41:13.897Z,46.68
2023-07-24T11:44:00.113Z,46.95
2023-07-24T11:46:45.939Z,46.54
2023-07-24T11:49:32.917Z,46.33
2023-07-24T11:52:18.672Z,46.58
2023-07-24T11:55:05.571Z,46.40
2023-07-24T11:58:01.692Z,46.35
2023-07-24T12:00:49.065Z,46.62
2023-07-24T12:03:37.728Z,46.77
2023-07-24T12:06:25.270Z,47.13
2023-07-24T12:09:14.578Z,47.26
2023-07-24T12:12:00.909Z,47.35
2023-07-24T12:14:46.471Z,47.26
2023-07-24T12:17:32.533Z,47.41
2023-07-24T12:20:18.793Z,47.58
2023-07-24T12:23:05.244Z,47.27
2023-07-24T12:25:51.407Z,47.45
2023-07-24T12:28:37.746Z,47.46
2023-07-24T12:31:26.790Z,47.54
2023-07-24T12:34:13.063Z,47.59
2023-07-24T12:36:58.794Z,47.22
2023-07-24T12:39:48.988Z,47.79
2023-07-24T12:42:35.114Z,47.71
2023-07-24T12:45:21.194Z,47.93
2023-07-24T12:48:06.625Z,47.89
2023-07-24T12:50:53.234Z,47.61
2023-07-24T12:53:41.563Z,47.68
2023-07-24T12:56:38.311Z,47.61
2023-07-24T12:59:26.749Z,47.55
2023-07-24T13:02:12.750Z,47.60
2023-07-24T13:04:58.609Z,47.41
2023-07-24T13:07:44.747Z,47.23
2023-07-24T13:10:30.348Z,47.36
2023-07-24T13:13:16.548Z,47.31
2023-07-24T13:16:02.948Z,47.07
2023-07-24T13:18:49.068Z,47.46
2023-07-24T13:21:34.801Z,47.05
2023-07-24T13:24:21.183Z,47.00
2023-07-24T13:27:08.739Z,47.12
2023-07-24T13:29:54.932Z,47.00
2023-07-24T13:32:41.808Z,46.95
2023-07-24T13:35:28.344Z,47.13
2023-07-24T13:38:15.753Z,46.91
2023-07-24T13:41:02.794Z,46.08
2023-07-24T13:43:48.936Z,46.07
2023-07-24T13:46:37.296Z,45.49
2023-07-24T13:49:25.714Z,45.80
2023-07-24T13:52:11.943Z,45.39
2023-07-24T13:54:58.295Z,45.11
2023-07-24T13:57:44.605Z,45.12
2023-07-24T14:00:30.563Z,45.09
2023-07-24T14:03:16.571Z,45.07
2023-07-24T14:06:02.609Z,44.83
2023-07-24T14:08:48.591Z,45.02
2023-07-24T14:11:34.606Z,44.44
2023-07-24T14:14:21.270Z,44.46
2023-07-24T14:17:07.256Z,43.81
2023-07-24T14:19:53.774Z,44.09
2023-07-24T14:22:39.487Z,43.92
2023-07-24T14:25:25.955Z,43.76
2023-07-24T14:28:11.927Z,43.79
2023-07-24T14:30:58.327Z,44.16
2023-07-24T14:33:43.890Z,44.03
2023-07-24T14:36:35.067Z,44.04
2023-07-24T14:39:21.178Z,44.17
2023-07-24T14:42:07.928Z,44.01
2023-07-24T14:44:54.244Z,44.29
2023-07-24T14:47:40.313Z,44.32
2023-07-24T14:50:25.973Z,44.09
2023-07-24T14:53:12.069Z,44.06
2023-07-24T14:55:57.666Z,44.06
2023-07-24T14:58:46.491Z,44.16
2023-07-24T15:01:33.129Z,44.39
2023-07-24T15:04:19.756Z,43.93
2023-07-24T15:07:06.115Z,43.90
2023-07-24T15:09:52.232Z,43.91
2023-07-24T15:12:37.819Z,43.69
2023-07-24T15:15:23.755Z,43.92
2023-07-24T15:18:11.261Z,43.89
2023-07-24T15:20:57.800Z,43.94
2023-07-24T15:23:43.734Z,44.19
2023-07-24T15:26:29.907Z,44.01
2023-07-24T15:29:19.862Z,44.58
2023-07-24T15:32:07.427Z,44.35
2023-07-24T15:34:53.330Z,44.38
2023-07-24T15:37:39.314Z,44.43
2023-07-24T15:40:24.970Z,43.83
2023-07-24T15:43:11.536Z,44.51
2023-07-24T15:45:57.623Z,44.62
2023-07-24T15:48:44.019Z,44.67
2023-07-24T15:51:31.185Z,44.74
2023-07-24T15:54:17.613Z,44.72
2023-07-24T15:57:03.288Z,44.85
2023-07-24T15:59:49.167Z,45.39
2023-07-24T16:02:35.201Z,45.42
2023-07-24T16:05:22.741Z,45.35
2023-07-24T16:08:08.292Z,45.42
2023-07-24T16:10:54.230Z,45.43
2023-07-24T16:13:40.799Z,45.43
2023-07-24T16:16:26.671Z,45.49
2023-07-24T16:19:21.293Z,45.50
2023-07-24T16:22:07.387Z,45.60
2023-07-24T16:24:53.221Z,45.63
2023-07-24T16:27:39.092Z,45.94
2023-07-24T16:30:24.920Z,46.04
2023-07-24T16:33:11.118Z,46.27
2023-07-24T16:35:56.738Z,46.07
2023-07-24T16:38:42.898Z,45.94
2023-07-24T16:41:28.405Z,46.13
2023-07-24T16:44:15.905Z,45.98
2023-07-24T16:49:51.081Z,46.00
2023-07-24T16:52:36.829Z,46.11
2023-07-24T16:55:22.817Z,46.48
2023-07-24T16:58:08.400Z,46.22
2023-07-24T17:00:54.696Z,46.44
2023-07-24T17:03:40.501Z,46.26
2023-07-24T17:06:26.610Z,46.62
2023-07-24T17:09:12.292Z,46.50
2023-07-24T17:11:58.297Z,46.82
2023-07-24T17:14:43.792Z,47.18
2023-07-24T17:17:29.881Z,47.30
2023-07-24T17:20:15.596Z,47.62
2023-07-24T17:23:03.789Z,47.92
2023-07-24T17:25:49.535Z,48.49
2023-07-24T17:28:35.358Z,48.82
2023-07-24T17:31:21.614Z,49.42
2023-07-24T17:34:07.879Z,49.50
2023-07-24T17:36:53.555Z,49.75
2023-07-24T17:39:39.501Z,50.06
2023-07-24T17:42:25.215Z,50.27
2023-07-24T17:45:11.242Z,50.03
2023-07-24T17:47:57.667Z,50.00
2023-07-24T17:50:43.863Z,49.80
2023-07-24T17:53:29.401Z,49.96
2023-07-24T17:56:15.216Z,50.18
2023-07-24T17:59:00.815Z,50.05
2023-07-24T18:01:47.213Z,50.23
2023-07-24T18:04:32.970Z,50.58
2023-07-24T18:07:19.317Z,50.67
2023-07-24T18:10:09.041Z,50.48
2023-07-24T18:12:55.791Z,50.42
2023-07-24T18:15:42.370Z,50.82
2023-07-24T18:18:28.899Z,50.69
2023-07-24T18:21:14.948Z,51.10
2023-07-24T18:24:05.994Z,51.24
2023-07-24T18:26:51.878Z,51.52
2023-07-24T18:29:38.070Z,51.17
2023-07-24T18:32:26.063Z,51.13
2023-07-24T18:35:12.877Z,51.72
2023-07-24T18:37:59.163Z,51.84
2023-07-24T18:40:45.410Z,51.96
2023-07-24T18:43:30.890Z,52.05
2023-07-24T18:46:20.012Z,52.43
2023-07-24T18:49:06.088Z,52.85
2023-07-24T18:51:53.264Z,52.75
2023-07-24T18:54:40.112Z,52.98
2023-07-24T18:57:26.678Z,53.41
2023-07-24T19:00:31.534Z,53.99
2023-07-24T19:03:37.412Z,53.77
2023-07-24T19:06:23.537Z,54.24
2023-07-24T19:09:09.952Z,54.42
2023-07-24T19:11:55.890Z,54.98
2023-07-24T19:14:41.860Z,55.00
2023-07-24T19:17:27.419Z,55.14
2023-07-24T19:20:13.856Z,55.39
2023-07-24T19:23:00.149Z,55.68
2023-07-24T19:25:47.343Z,55.94
2023-07-24T19:28:32.744Z,56.21
2023-07-24T19:31:18.722Z,56.43
2023-07-24T19:34:04.143Z,56.49
2023-07-24T19:36:50.147Z,56.83
2023-07-24T19:39:35.662Z,56.96
2023-07-24T19:42:21.887Z,57.12
2023-07-24T19:45:07.844Z,57.32
2023-07-24T19:47:53.650Z,57.61
2023-07-24T19:50:39.357Z,58.06
2023-07-24T19:53:26.925Z,58.16
2023-07-24T19:56:12.439Z,58.39
2023-07-24T19:58:58.341Z,58.82
2023-07-24T20:01:43.709Z,58.68
2023-07-24T20:04:29.747Z,59.26
2023-07-24T20:07:18.893Z,59.45
2023-07-24T20:10:05.475Z,59.81
2023-07-24T20:12:51.285Z,59.67
2023-07-24T20:15:37.476Z,60.23
2023-07-24T20:18:22.979Z,60.29
2023-07-24T20:21:09.154Z,60.50
2023-07-24T20:23:55.450Z,60.77
2023-07-24T20:26:41.269Z,60.96
2023-07-24T20:29:26.868Z,61.67
2023-07-24T20:32:13.468Z,61.82
2023-07-24T20:34:59.368Z,61.75
2023-07-24T20:37:45.294Z,62.15
2023-07-24T20:40:31.254Z,62.37
2023-07-24T20:43:17.268Z,62.89
2023-07-24T20:46:14.230Z,63.35
2023-07-24T20:49:00.199Z,63.72
2023-07-24T20:51:46.262Z,63.70
2023-07-24T20:54:32.518Z,64.03
2023-07-24T20:57:18.048Z,64.07
2023-07-24T21:00:04.327Z,64.86
2023-07-24T21:02:51.948Z,65.31
2023-07-24T21:05:38.675Z,65.58
2023-07-24T21:08:24.444Z,65.64
2023-07-24T21:11:10.279Z,66.27
2023-07-24T21:13:55.873Z,66.21
2023-07-24T21:16:41.653Z,66.88
2023-07-24T21:19:27.480Z,67.32
2023-07-24T21:22:14.394Z,67.46
2023-07-24T21:25:00.069Z,67.83
2023-07-24T21:27:46.392Z,68.37
2023-07-24T21:30:32.064Z,68.67
2023-07-24T21:33:18.368Z,68.82
2023-07-24T21:36:04.789Z,69.61
2023-07-24T21:38:53.064Z,69.64
2023-07-24T21:41:39.016Z,70.19
2023-07-24T21:44:27.420Z,70.25
2023-07-24T21:47:13.362Z,70.37
2023-07-24T21:50:00.310Z,70.97
2023-07-24T21:52:46.433Z,71.32
2023-07-24T21:55:32.201Z,71.61
2023-07-24T21:58:18.144Z,72.06
2023-07-24T22:01:04.341Z,74.31
2023-07-24T22:03:49.959Z,73.91
2023-07-24T22:06:36.178Z,75.17
2023-07-24T22:09:21.998Z,75.52
2023-07-24T22:12:08.043Z,76.58
2023-07-24T22:14:54.183Z,77.56
2023-07-24T22:17:40.001Z,77.85
2023-07-24T22:23:14.829Z,79.74
2023-07-24T22:26:03.393Z,80.87
2023-07-24T22:28:49.172Z,81.31
2023-07-24T22:31:34.875Z,81.63
2023-07-24T22:34:20.824Z,82.65
2023-07-24T22:37:07.879Z,82.74
2023-07-24T22:39:53.966Z,85.25
2023-07-24T22:42:39.501Z,84.41
2023-07-24T22:45:26.100Z,85.29
2023-07-24T22:48:11.972Z,85.35
2023-07-24T22:50:57.686Z,85.72
2023-07-24T22:53:44.059Z,86.49
2023-07-24T22:56:30.096Z,86.80
2023-07-24T22:59:23.072Z,86.70
2023-07-24T23:02:09.146Z,86.99
2023-07-24T23:04:55.132Z,87.93
2023-07-24T23:07:41.060Z,87.86
2023-07-24T23:10:26.491Z,88.19
2023-07-24T23:13:12.437Z,88.64
2023-07-24T23:16:00.563Z,88.45
2023-07-24T23:18:46.292Z,89.37
2023-07-24T23:21:32.223Z,89.38
2023-07-24T23:24:18.241Z,89.39
2023-07-24T23:27:03.994Z,89.41
2023-07-24T23:29:50.130Z,89.95
2023-07-24T23:32:35.842Z,89.77
2023-07-24T23:35:21.826Z,89.76
2023-07-24T23:38:07.549Z,90.10
2023-07-24T23:41:00.921Z,89.97
2023-07-24T23:43:48.145Z,89.96
2023-07-24T23:46:35.588Z,90.00
2023-07-24T23:49:21.530Z,90.09
2023-07-24T23:52:08.077Z,90.41
2023-07-24T23:54:54.251Z,90.86
2023-07-24T23:57:40.080Z,91.29
